Ora Direzione Vento Velocita' Vento Media Vento Raffica Max. Temperatura Wind Chill Pioggia Pressione
19:09:08.0248 °(WSW)9.1 Kts5.1 Kts13.8 Kts18.1 °C17.8 °C0.0 mm1024.8 Hpa
18:47:38.0227 °(SW)1.8 Kts3.1 Kts13.8 Kts18.6 °C18.6 °C0.0 mm1024.7 Hpa
18:28:19.0258 °(WSW)5.4 Kts5.1 Kts13.8 Kts19.1 °C19.1 °C0.0 mm1024.8 Hpa
18:09:01.0219 °(SW)8.4 Kts5.4 Kts13.8 Kts19.2 °C19.2 °C0.0 mm1024.9 Hpa
17:47:22.0213 °(SSW)6.4 Kts3.9 Kts13.8 Kts19.7 °C19.7 °C0.0 mm1024.9 Hpa
17:28:10.0207 °(SSW)7.4 Kts6.6 Kts13.8 Kts19.4 °C19.4 °C0.0 mm1024.9 Hpa
17:08:49.0243 °(WSW)3.7 Kts6.0 Kts12.8 Kts19.9 °C19.9 °C0.0 mm1024.9 Hpa
16:47:21.0204 °(SSW)7.4 Kts4.9 Kts12.8 Kts20.9 °C20.9 °C0.0 mm1024.9 Hpa
16:28:01.0202 °(SSW)1.8 Kts3.3 Kts10.1 Kts21.2 °C21.2 °C0.0 mm1024.9 Hpa
16:08:40.0221 °(SW)4.7 Kts3.7 Kts10.1 Kts20.8 °C20.8 °C0.0 mm1025.1 Hpa
15:47:09.0226 °(SW)4.7 Kts4.1 Kts10.1 Kts20.5 °C20.5 °C0.0 mm1025.3 Hpa
15:27:55.0224 °(SW)6.4 Kts2.7 Kts10.1 Kts20.6 °C20.6 °C0.0 mm1025.5 Hpa
15:08:35.0224 °(SW)1.8 Kts1.6 Kts9.1 Kts20.8 °C20.8 °C0.0 mm1025.6 Hpa
14:47:09.0231 °(SW)7.4 Kts4.7 Kts8.4 Kts20.1 °C20.1 °C0.0 mm1025.9 Hpa
14:27:56.092 °(E)1.8 Kts2.3 Kts5.4 Kts18.4 °C18.4 °C0.0 mm1026.0 Hpa
14:08:33.044 °(NE)3.7 Kts3.3 Kts5.4 Kts16.9 °C16.9 °C0.0 mm1026.3 Hpa
13:47:08.054 °(NE)2.7 Kts3.3 Kts5.4 Kts17.3 °C17.3 °C0.0 mm1026.5 Hpa
13:27:53.023 °(NNE)3.7 Kts3.5 Kts5.4 Kts17.2 °C17.2 °C0.0 mm1026.6 Hpa
13:08:38.08 °(N)2.7 Kts3.3 Kts5.4 Kts16.3 °C16.3 °C0.0 mm1026.7 Hpa
12:47:14.014 °(NNE)3.7 Kts3.7 Kts5.4 Kts16.5 °C16.5 °C0.0 mm1026.9 Hpa